createdAt,value
2022-09-04T00:02:02.370Z,1.00
2022-09-04T00:04:41.105Z,1.30
2022-09-04T00:07:19.088Z,1.33
2022-09-04T00:09:54.450Z,1.03
2022-09-04T00:12:27.968Z,1.00
2022-09-04T00:15:03.614Z,1.07
2022-09-04T00:17:36.935Z,0.90
2022-09-04T00:20:09.014Z,1.10
2022-09-04T00:22:52.328Z,1.33
2022-09-04T00:25:26.217Z,1.20
2022-09-04T00:28:01.964Z,1.00
2022-09-04T00:30:32.449Z,1.30
2022-09-04T00:33:06.271Z,1.07
2022-09-04T00:35:38.374Z,1.20
2022-09-04T00:38:11.799Z,1.30
2022-09-04T00:40:42.376Z,1.30
2022-09-04T00:43:58.130Z,1.30
2022-09-04T00:47:17.718Z,1.00
2022-09-04T00:49:57.830Z,1.20
2022-09-04T00:52:43.304Z,1.10
2022-09-04T00:55:28.115Z,1.40
2022-09-04T00:58:16.739Z,1.50
2022-09-04T01:00:47.783Z,0.87
2022-09-04T01:03:48.507Z,1.30
2022-09-04T01:06:35.350Z,1.10
2022-09-04T01:09:36.565Z,0.90
2022-09-04T01:12:14.637Z,0.90
2022-09-04T01:14:53.128Z,1.23
2022-09-04T01:17:29.177Z,1.50
2022-09-04T01:20:03.758Z,1.03
2022-09-04T01:22:58.988Z,1.23
2022-09-04T01:25:43.717Z,1.27
2022-09-04T01:28:21.386Z,1.23
2022-09-04T01:30:55.492Z,1.13
2022-09-04T01:33:31.085Z,1.10
2022-09-04T01:36:06.881Z,1.10
2022-09-04T01:38:41.230Z,0.83
2022-09-04T01:41:16.990Z,1.00
2022-09-04T01:43:44.877Z,0.90
2022-09-04T01:46:36.227Z,1.10
2022-09-04T01:49:10.760Z,1.00
2022-09-04T01:51:43.544Z,1.10
2022-09-04T01:54:28.059Z,1.10
2022-09-04T01:57:09.330Z,1.10
2022-09-04T01:59:49.757Z,1.53
2022-09-04T02:02:26.570Z,0.97
2022-09-04T02:05:06.281Z,1.30
2022-09-04T02:07:46.409Z,1.13
2022-09-04T02:10:23.686Z,1.00
2022-09-04T02:13:04.972Z,0.97
2022-09-04T02:15:41.210Z,1.20
2022-09-04T02:18:19.777Z,1.00
2022-09-04T02:20:57.534Z,1.03
2022-09-04T02:23:35.495Z,3.43
2022-09-04T02:26:13.231Z,1.00
2022-09-04T02:28:50.923Z,1.10
2022-09-04T02:31:28.933Z,0.93
2022-09-04T02:34:06.612Z,0.90
2022-09-04T02:36:41.972Z,1.00
2022-09-04T02:39:23.007Z,1.07
2022-09-04T02:41:58.385Z,1.17
2022-09-04T02:44:36.595Z,1.33
2022-09-04T02:47:14.160Z,1.33
2022-09-04T02:49:52.539Z,1.20
2022-09-04T02:52:33.513Z,1.33
2022-09-04T02:55:18.395Z,1.10
2022-09-04T02:57:59.057Z,0.97
2022-09-04T03:00:40.274Z,1.10
2022-09-04T03:03:13.334Z,0.97
2022-09-04T03:05:46.638Z,1.17
2022-09-04T03:08:20.002Z,1.30
2022-09-04T03:10:53.291Z,1.20
2022-09-04T03:13:26.410Z,1.40
2022-09-04T03:16:02.575Z,1.00
2022-09-04T03:18:36.001Z,1.27
2022-09-04T03:21:09.796Z,1.40
2022-09-04T03:23:46.257Z,1.23
2022-09-04T03:26:22.734Z,0.90
2022-09-04T03:29:03.696Z,1.30
2022-09-04T03:31:41.387Z,0.90
2022-09-04T03:34:19.693Z,1.10
2022-09-04T03:36:58.813Z,1.23
2022-09-04T03:39:39.091Z,1.23
2022-09-04T03:42:20.700Z,1.03
2022-09-04T03:45:03.682Z,1.10
2022-09-04T03:47:42.840Z,1.53
2022-09-04T03:50:19.392Z,1.30
2022-09-04T03:52:57.593Z,1.10
2022-09-04T03:55:45.861Z,1.13
2022-09-04T03:58:25.152Z,1.53
2022-09-04T04:01:04.236Z,1.27
2022-09-04T04:03:47.689Z,1.33
2022-09-04T04:06:24.294Z,1.63
2022-09-04T04:09:26.249Z,1.30
2022-09-04T04:12:35.029Z,1.17
2022-09-04T04:15:28.653Z,1.40
2022-09-04T04:18:13.953Z,1.57
2022-09-04T04:20:51.053Z,1.33
2022-09-04T04:23:42.692Z,1.77
2022-09-04T04:26:14.928Z,1.60
2022-09-04T04:29:13.246Z,1.70
2022-09-04T04:32:10.753Z,1.33
2022-09-04T04:34:50.618Z,1.47
2022-09-04T04:37:27.065Z,1.50
2022-09-04T04:40:03.755Z,1.50
2022-09-04T04:42:37.734Z,1.30
2022-09-04T04:45:38.518Z,1.13
2022-09-04T04:48:34.420Z,1.40
2022-09-04T04:51:13.702Z,1.10
2022-09-04T04:53:50.285Z,1.33
2022-09-04T04:56:27.260Z,1.00
2022-09-04T04:59:07.780Z,1.00
2022-09-04T05:01:45.519Z,1.23
2022-09-04T05:04:23.593Z,1.47
2022-09-04T05:06:57.429Z,1.00
2022-09-04T05:09:38.609Z,1.13
2022-09-04T05:12:16.098Z,1.30
2022-09-04T05:14:53.506Z,1.37
2022-09-04T05:17:36.496Z,1.50
2022-09-04T05:20:25.561Z,1.33
2022-09-04T05:23:03.149Z,1.10
2022-09-04T05:25:39.388Z,1.30
2022-09-04T05:28:20.506Z,1.40
2022-09-04T05:30:57.252Z,1.10
2022-09-04T05:33:35.581Z,1.37
2022-09-04T05:36:10.925Z,1.60
2022-09-04T05:38:47.798Z,1.37
2022-09-04T05:41:33.389Z,1.23
2022-09-04T05:44:20.293Z,1.30
2022-09-04T05:47:02.696Z,1.10
2022-09-04T05:49:48.163Z,1.50
2022-09-04T05:52:41.420Z,1.60
2022-09-04T05:55:32.723Z,1.97
2022-09-04T05:58:17.817Z,1.10
2022-09-04T06:00:54.052Z,1.73
2022-09-04T06:03:45.253Z,1.53
2022-09-04T06:06:21.460Z,1.30
2022-09-04T06:09:06.953Z,1.30
2022-09-04T06:12:19.201Z,1.20
2022-09-04T06:15:05.981Z,1.43
2022-09-04T06:17:49.057Z,1.40
2022-09-04T06:20:32.809Z,1.33
2022-09-04T06:23:18.488Z,1.07
2022-09-04T06:26:22.911Z,1.07
2022-09-04T06:29:12.078Z,1.17
2022-09-04T06:32:10.484Z,1.07
2022-09-04T06:35:03.316Z,1.10
2022-09-04T06:37:38.327Z,1.10
2022-09-04T06:40:24.653Z,1.10
2022-09-04T06:43:04.785Z,1.27
2022-09-04T06:45:43.545Z,1.80
2022-09-04T06:48:24.895Z,1.17
2022-09-04T06:51:03.393Z,1.27
2022-09-04T06:53:42.467Z,1.10
2022-09-04T06:56:28.610Z,1.10
2022-09-04T06:59:18.525Z,1.57
2022-09-04T07:02:00.307Z,0.80
2022-09-04T07:04:45.732Z,1.20
2022-09-04T07:07:21.782Z,1.00
2022-09-04T07:09:55.939Z,1.33
2022-09-04T07:12:45.645Z,1.30
2022-09-04T07:15:42.265Z,1.00
2022-09-04T07:18:24.063Z,1.30
2022-09-04T07:21:04.433Z,1.20
2022-09-04T07:23:44.997Z,1.07
2022-09-04T07:26:28.345Z,1.20
2022-09-04T07:29:12.273Z,1.27
2022-09-04T07:31:45.476Z,1.40
2022-09-04T07:34:19.712Z,1.60
2022-09-04T07:36:57.083Z,1.20
2022-09-04T07:39:31.225Z,1.50
2022-09-04T07:42:05.904Z,1.40
2022-09-04T07:44:40.201Z,1.20
2022-09-04T07:47:14.292Z,1.50
2022-09-04T07:49:52.452Z,1.30
2022-09-04T07:52:36.557Z,1.43
2022-09-04T07:55:18.385Z,1.90
2022-09-04T07:58:04.536Z,1.47
2022-09-04T08:00:40.558Z,1.47
2022-09-04T08:03:26.388Z,1.67
2022-09-04T08:06:01.516Z,1.40
2022-09-04T08:09:07.259Z,1.70
2022-09-04T08:11:50.125Z,1.43
2022-09-04T08:14:32.410Z,1.33
2022-09-04T08:17:25.660Z,1.57
2022-09-04T08:20:04.023Z,1.60
2022-09-04T08:22:41.618Z,1.50
2022-09-04T08:25:18.114Z,1.50
2022-09-04T08:28:01.476Z,1.53
2022-09-04T08:30:38.436Z,1.70
2022-09-04T08:33:31.329Z,1.80
2022-09-04T08:36:03.072Z,1.50
2022-09-04T08:38:42.521Z,1.90
2022-09-04T08:41:50.298Z,1.80
2022-09-04T08:44:45.740Z,1.73
2022-09-04T08:47:53.487Z,1.60
2022-09-04T08:51:04.981Z,1.90
2022-09-04T08:54:20.888Z,1.70
2022-09-04T08:57:16.588Z,1.77
2022-09-04T09:00:07.957Z,1.57
2022-09-04T09:03:13.446Z,1.53
2022-09-04T09:06:16.226Z,1.30
2022-09-04T09:09:29.803Z,1.93
2022-09-04T09:12:41.428Z,1.73
2022-09-04T09:15:43.052Z,1.33
2022-09-04T09:18:27.125Z,1.97
2022-09-04T09:21:02.662Z,1.50
2022-09-04T09:23:48.398Z,1.60
2022-09-04T09:26:26.463Z,1.60
2022-09-04T09:29:27.676Z,1.53
2022-09-04T09:32:31.327Z,1.50
2022-09-04T09:35:46.237Z,1.60
2022-09-04T09:38:44.467Z,1.63
2022-09-04T09:41:45.232Z,1.70
2022-09-04T09:44:52.104Z,1.83
2022-09-04T09:48:00.805Z,1.67
2022-09-04T09:51:01.256Z,1.97
2022-09-04T09:53:47.473Z,1.70
2022-09-04T09:56:53.906Z,1.73
2022-09-04T09:59:58.745Z,1.90
2022-09-04T10:03:04.048Z,1.73
2022-09-04T10:06:00.685Z,1.50
2022-09-04T10:09:14.162Z,1.23
2022-09-04T10:12:18.367Z,1.30
2022-09-04T10:15:17.822Z,1.50
2022-09-04T10:18:38.042Z,1.30
2022-09-04T10:21:25.913Z,1.60
2022-09-04T10:24:21.913Z,1.20
2022-09-04T10:27:17.318Z,1.27
2022-09-04T10:30:01.685Z,1.23
2022-09-04T10:32:58.104Z,1.00
2022-09-04T10:35:31.688Z,1.43
2022-09-04T10:38:27.639Z,1.30
2022-09-04T10:41:28.566Z,1.37
2022-09-04T10:44:21.282Z,1.27
2022-09-04T10:47:00.958Z,1.00
2022-09-04T10:49:49.881Z,1.50
2022-09-04T10:53:01.208Z,1.17
2022-09-04T10:56:01.221Z,1.13
2022-09-04T10:59:03.236Z,1.07
2022-09-04T11:02:11.079Z,1.00
2022-09-04T11:05:12.547Z,0.90
2022-09-04T11:08:09.206Z,1.20
2022-09-04T11:11:08.785Z,1.10
2022-09-04T11:14:06.365Z,1.53
2022-09-04T11:16:58.485Z,1.10
2022-09-04T11:19:51.617Z,1.07
2022-09-04T11:22:52.778Z,1.10
2022-09-04T11:26:06.062Z,1.30
2022-09-04T11:28:55.763Z,1.30
2022-09-04T11:31:59.018Z,1.20
2022-09-04T11:35:09.376Z,1.10
2022-09-04T11:37:59.326Z,0.97
2022-09-04T11:41:08.579Z,1.30
2022-09-04T11:44:01.497Z,1.00
2022-09-04T11:46:52.593Z,0.93
2022-09-04T11:49:48.398Z,1.20
2022-09-04T11:52:23.830Z,1.10
2022-09-04T11:55:25.769Z,1.20
2022-09-04T11:58:17.709Z,1.10
2022-09-04T12:00:58.354Z,0.90
2022-09-04T12:03:51.244Z,1.00
2022-09-04T12:06:37.354Z,0.83
2022-09-04T12:09:30.170Z,0.97
2022-09-04T12:12:15.126Z,1.00
2022-09-04T12:15:09.498Z,1.30
2022-09-04T12:18:14.237Z,1.20
2022-09-04T12:21:13.502Z,1.30
2022-09-04T12:24:05.997Z,1.20
2022-09-04T12:27:04.580Z,1.03
2022-09-04T12:30:06.455Z,1.10
2022-09-04T12:33:07.547Z,1.10
2022-09-04T12:36:14.471Z,1.10
2022-09-04T12:39:03.536Z,1.00
2022-09-04T12:41:36.420Z,1.17
2022-09-04T12:44:14.047Z,1.07
2022-09-04T12:46:56.831Z,1.17
2022-09-04T12:49:51.538Z,1.30
2022-09-04T12:52:31.511Z,0.90
2022-09-04T12:55:10.937Z,1.20
2022-09-04T12:57:48.585Z,1.23
2022-09-04T13:00:18.018Z,1.20
2022-09-04T13:02:57.125Z,1.03
2022-09-04T13:05:52.953Z,1.30
2022-09-04T13:08:31.478Z,0.90
2022-09-04T13:11:14.519Z,0.93
2022-09-04T13:13:53.254Z,0.97
2022-09-04T13:16:27.396Z,1.20
2022-09-04T13:19:07.111Z,1.13
2022-09-04T13:21:54.828Z,1.40
2022-09-04T13:24:39.942Z,0.90
2022-09-04T13:27:26.561Z,1.07
2022-09-04T13:30:08.192Z,0.93
2022-09-04T13:32:54.421Z,1.00
2022-09-04T13:35:50.057Z,1.30
2022-09-04T13:38:35.740Z,1.10
2022-09-04T13:41:30.506Z,0.90
2022-09-04T13:44:19.337Z,1.20
2022-09-04T13:46:58.217Z,1.03
2022-09-04T13:49:30.611Z,1.07
2022-09-04T13:52:07.237Z,1.17
2022-09-04T13:54:40.421Z,1.20
2022-09-04T13:57:16.586Z,1.20
2022-09-04T13:59:50.054Z,1.13
2022-09-04T14:02:24.392Z,1.10
2022-09-04T14:04:56.202Z,0.97
2022-09-04T14:07:29.296Z,1.20
2022-09-04T14:10:00.440Z,1.00
2022-09-04T14:13:00.062Z,1.23
2022-09-04T14:15:59.779Z,1.17
2022-09-04T14:18:45.619Z,0.97
2022-09-04T14:21:20.494Z,1.03
2022-09-04T14:23:54.333Z,1.43
2022-09-04T14:26:34.007Z,1.27
2022-09-04T14:29:15.948Z,4.00
2022-09-04T14:31:55.817Z,5.63
2022-09-04T14:34:38.710Z,6.63
2022-09-04T14:37:19.258Z,2.13
2022-09-04T14:39:55.085Z,1.37
2022-09-04T14:42:42.462Z,5.23
2022-09-04T14:45:31.354Z,2.07
2022-09-04T14:48:03.660Z,1.13
2022-09-04T14:50:44.274Z,1.60
2022-09-04T14:53:19.762Z,1.33
2022-09-04T14:56:16.601Z,1.10
2022-09-04T14:58:50.605Z,1.00
2022-09-04T15:01:21.917Z,1.00
2022-09-04T15:03:56.344Z,1.27
2022-09-04T15:06:32.503Z,1.03
2022-09-04T15:09:18.982Z,1.17
2022-09-04T15:11:47.208Z,1.10
2022-09-04T15:14:28.315Z,0.90
2022-09-04T15:17:01.043Z,1.20
2022-09-04T15:19:47.387Z,1.10
2022-09-04T15:22:20.916Z,1.00
2022-09-04T15:24:56.026Z,1.10
2022-09-04T15:27:32.108Z,1.27
2022-09-04T15:30:06.505Z,1.10
2022-09-04T15:32:41.729Z,1.10
2022-09-04T15:35:23.848Z,1.40
2022-09-04T15:38:04.769Z,2.13
2022-09-04T15:40:37.008Z,1.20
2022-09-04T15:43:11.581Z,0.90
2022-09-04T15:45:47.289Z,0.77
2022-09-04T15:48:42.024Z,1.27
2022-09-04T15:51:20.417Z,3.10
2022-09-04T15:54:01.748Z,1.50
2022-09-04T15:56:36.862Z,1.87
2022-09-04T15:59:12.045Z,2.20
2022-09-04T16:01:48.579Z,1.20
2022-09-04T16:04:26.196Z,1.10
2022-09-04T16:06:58.043Z,1.20
2022-09-04T16:09:32.542Z,1.47
2022-09-04T16:12:11.201Z,1.10
2022-09-04T16:14:44.961Z,1.67
2022-09-04T16:17:20.052Z,1.00
2022-09-04T16:19:57.744Z,1.00
2022-09-04T16:22:38.394Z,0.90
2022-09-04T16:25:11.050Z,1.10
2022-09-04T16:27:45.185Z,1.03
2022-09-04T16:30:30.098Z,1.20
2022-09-04T16:32:58.825Z,0.90
2022-09-04T16:35:32.452Z,1.07
2022-09-04T16:38:08.033Z,0.90
2022-09-04T16:40:40.276Z,1.00
2022-09-04T16:43:19.779Z,1.10
2022-09-04T16:45:51.979Z,1.00
2022-09-04T16:48:34.891Z,0.97
2022-09-04T16:51:39.083Z,0.90
2022-09-04T16:54:05.534Z,2.50
2022-09-04T16:56:38.400Z,5.73
2022-09-04T16:59:23.158Z,2.20
2022-09-04T17:01:58.269Z,2.40
2022-09-04T17:04:37.987Z,3.00
2022-09-04T17:07:18.714Z,6.23
2022-09-04T17:09:55.811Z,3.40
2022-09-04T17:12:36.690Z,1.47
2022-09-04T17:15:13.542Z,2.73
2022-09-04T17:17:43.461Z,3.33
2022-09-04T17:20:13.742Z,2.53
2022-09-04T17:28:55.227Z,4.13
2022-09-04T17:29:13.982Z,6.10
2022-09-04T17:29:15.827Z,4.57
2022-09-04T17:31:46.199Z,7.37
2022-09-04T17:39:47.728Z,6.47
2022-09-04T17:40:41.634Z,7.47
2022-09-04T17:40:49.877Z,6.90
2022-09-04T17:43:22.371Z,6.33
2022-09-04T17:46:02.794Z,5.10
2022-09-04T17:48:33.152Z,5.77
2022-09-04T17:51:03.843Z,3.90
2022-09-04T17:53:35.164Z,5.17
2022-09-04T17:56:11.201Z,3.80
2022-09-04T17:58:46.933Z,3.77
2022-09-04T18:01:25.064Z,3.20
2022-09-04T18:04:21.984Z,3.00
2022-09-04T18:06:55.617Z,3.57
2022-09-04T18:09:29.850Z,3.97
2022-09-04T18:12:10.839Z,4.13
2022-09-04T18:14:45.202Z,3.47
2022-09-04T18:17:21.564Z,4.20
2022-09-04T18:19:52.642Z,3.40
2022-09-04T18:22:32.052Z,2.70
2022-09-04T18:25:15.831Z,3.10
2022-09-04T18:28:06.379Z,3.40
2022-09-04T18:37:08.938Z,2.93
2022-09-04T18:37:18.211Z,2.60
2022-09-04T18:37:19.203Z,3.87
2022-09-04T18:39:48.376Z,2.87
2022-09-04T18:50:29.962Z,3.00
2022-09-04T18:50:32.089Z,2.33
2022-09-04T18:50:32.730Z,2.30
2022-09-04T18:51:18.679Z,2.30
2022-09-04T18:53:50.753Z,2.80
2022-09-04T18:56:23.374Z,2.60
2022-09-04T18:59:00.306Z,2.30
2022-09-04T19:01:39.642Z,2.40
2022-09-04T19:04:36.425Z,2.40
2022-09-04T19:07:09.016Z,2.10
2022-09-04T19:09:56.150Z,2.20
2022-09-04T19:12:35.669Z,2.27
2022-09-04T19:15:36.033Z,2.83
2022-09-04T19:18:14.879Z,2.20
2022-09-04T19:20:48.788Z,2.20
2022-09-04T19:23:28.941Z,1.90
2022-09-04T19:26:00.520Z,1.70
2022-09-04T19:28:40.664Z,1.90
2022-09-04T19:31:30.292Z,1.90
2022-09-04T19:34:06.137Z,1.67
2022-09-04T19:36:40.268Z,1.70
2022-09-04T19:45:56.940Z,1.73
2022-09-04T19:46:01.905Z,1.93
2022-09-04T19:46:09.323Z,2.40
2022-09-04T19:48:20.558Z,1.73
2022-09-04T19:53:19.368Z,1.87
2022-09-04T19:53:56.596Z,2.20
2022-09-04T19:56:30.331Z,1.80
2022-09-04T19:59:06.304Z,1.90
2022-09-04T20:01:45.662Z,2.17
2022-09-04T20:04:25.735Z,1.90
2022-09-04T20:06:59.180Z,1.87
2022-09-04T20:09:33.213Z,2.23
2022-09-04T20:12:11.600Z,2.03
2022-09-04T20:14:45.138Z,1.77
2022-09-04T20:17:29.123Z,1.93
2022-09-04T20:20:00.368Z,1.80
2022-09-04T20:22:35.707Z,1.90
2022-09-04T20:25:19.831Z,1.97
2022-09-04T20:27:51.861Z,2.30
2022-09-04T20:30:23.889Z,2.50
2022-09-04T20:32:59.040Z,1.53
2022-09-04T20:35:35.084Z,1.90
2022-09-04T20:38:23.424Z,1.80
2022-09-04T20:40:56.241Z,2.67
2022-09-04T20:43:32.117Z,2.27
2022-09-04T20:49:41.671Z,2.03
2022-09-04T20:52:45.324Z,2.40
2022-09-04T20:52:56.060Z,2.20
2022-09-04T20:55:10.053Z,2.13
2022-09-04T21:03:14.378Z,2.50
2022-09-04T21:03:18.786Z,2.27
2022-09-04T21:04:04.649Z,2.30
2022-09-04T21:06:39.712Z,2.10
2022-09-04T21:09:19.283Z,1.77
2022-09-04T21:11:52.599Z,2.10
2022-09-04T21:14:27.367Z,1.83
2022-09-04T21:17:34.265Z,1.93
2022-09-04T21:20:27.476Z,2.20
2022-09-04T21:23:11.280Z,2.30
2022-09-04T21:25:56.801Z,1.87
2022-09-04T21:28:50.474Z,2.33
2022-09-04T21:31:44.122Z,2.77
2022-09-04T21:34:31.585Z,2.10
2022-09-04T21:37:06.258Z,2.27
2022-09-04T21:39:58.793Z,2.47
2022-09-04T21:42:56.937Z,2.27
2022-09-04T21:45:40.473Z,2.53
2022-09-04T21:48:51.310Z,2.37
2022-09-04T21:51:37.632Z,1.80
2022-09-04T21:55:44.365Z,2.20
2022-09-04T22:02:27.113Z,1.77
2022-09-04T22:02:37.800Z,3.70
2022-09-04T22:04:01.423Z,2.40
2022-09-04T22:08:34.592Z,2.40
2022-09-04T22:13:31.196Z,2.50
2022-09-04T22:13:38.174Z,2.50
2022-09-04T22:15:35.389Z,2.50
2022-09-04T22:18:29.664Z,2.17
2022-09-04T22:21:16.195Z,2.70
2022-09-04T22:24:29.010Z,3.00
2022-09-04T22:27:19.516Z,2.50
2022-09-04T22:30:15.000Z,2.33
2022-09-04T22:33:24.496Z,2.43
2022-09-04T22:36:18.778Z,2.53
2022-09-04T22:39:19.787Z,3.17
2022-09-04T22:42:32.103Z,3.37
2022-09-04T22:45:27.821Z,3.07
2022-09-04T22:48:22.684Z,2.40
2022-09-04T22:51:11.873Z,2.93
2022-09-04T22:54:02.552Z,2.50
2022-09-04T22:56:44.973Z,2.40
2022-09-04T23:02:14.849Z,3.60
2022-09-04T23:05:09.228Z,4.13
2022-09-04T23:13:46.900Z,4.03
2022-09-04T23:13:52.186Z,4.57
2022-09-04T23:14:08.361Z,4.07
2022-09-04T23:16:56.037Z,3.63
2022-09-04T23:26:38.272Z,2.30
2022-09-04T23:26:42.363Z,2.80
2022-09-04T23:26:46.033Z,3.03
2022-09-04T23:29:24.263Z,2.60
2022-09-04T23:32:16.590Z,2.40
2022-09-04T23:35:14.896Z,3.20
2022-09-04T23:38:00.949Z,3.37
2022-09-04T23:40:39.071Z,3.60
2022-09-04T23:43:43.237Z,3.93
2022-09-04T23:46:25.652Z,4.07
2022-09-04T23:49:24.980Z,4.50
2022-09-04T23:52:03.008Z,4.50
2022-09-04T23:54:59.320Z,4.47
2022-09-04T23:57:32.201Z,4.73
